Time;durP1;ratioP1;P1;durP2;ratioP2;P2;SDS_P1;SDS_P2;PMS_P1;PMS_P2;Temp;Humidity;BMP_temperature;BMP_pressure;BME280_temperature;BME280_humidity;BME280_pressure;Samples;Min_cycle;Max_cycle;Signal;HPM_P1;HPM_P2
2022/05/08 00:00:53;;;;;;;21.30;14.88;;;;;;;11.70;78.10;100426.03;5031541;28;20399;-69
2022/05/08 00:03:18;;;;;;;20.25;14.48;;;;;;;11.73;77.66;100425.88;5031995;28;20095;-69
2022/05/08 00:05:43;;;;;;;23.33;15.30;;;;;;;11.73;77.68;100423.25;5031942;28;20045;-67
2022/05/08 00:08:09;;;;;;;21.50;15.65;;;;;;;11.67;77.49;100427.97;5031700;28;20042;-68
2022/05/08 00:10:34;;;;;;;17.27;14.23;;;;;;;11.59;77.92;100430.91;5031981;28;20674;-68
2022/05/08 00:12:59;;;;;;;21.55;15.77;;;;;;;11.57;78.23;100430.13;5031632;28;20223;-69
2022/05/08 00:15:25;;;;;;;18.65;15.07;;;;;;;11.58;77.99;100429.19;5031407;28;20033;-68
2022/05/08 00:17:50;;;;;;;18.48;14.55;;;;;;;11.72;79.66;100433.91;5030712;28;20103;-70
2022/05/08 00:20:15;;;;;;;17.50;11.43;;;;;;;11.86;79.62;100431.47;5033314;28;20046;-69
2022/05/08 00:22:45;;;;;;;14.55;11.60;;;;;;;12.05;80.43;100428.06;5033384;28;20029;-66
2022/05/08 00:25:11;;;;;;;14.82;12.15;;;;;;;12.18;80.78;100429.22;5033474;28;20033;-67
2022/05/08 00:27:37;;;;;;;21.67;14.13;;;;;;;12.26;80.40;100437.69;5033368;28;20371;-67
2022/05/08 00:30:03;;;;;;;14.77;11.15;;;;;;;12.23;78.05;100436.03;5019646;28;20037;-68
2022/05/08 00:32:29;;;;;;;17.67;11.73;;;;;;;12.27;79.06;100439.38;5033485;28;20048;-67
2022/05/08 00:34:54;;;;;;;15.43;12.25;;;;;;;12.40;80.44;100431.72;5033562;28;20037;-67
2022/05/08 00:37:20;;;;;;;16.25;12.85;;;;;;;12.45;79.14;100432.38;5032759;28;20037;-68
2022/05/08 00:39:45;;;;;;;17.17;13.68;;;;;;;12.51;79.08;100432.09;5032915;28;20064;-67
2022/05/08 00:42:10;;;;;;;17.67;13.15;;;;;;;12.52;78.96;100422.38;5035688;28;20091;-67
2022/05/08 00:44:36;;;;;;;16.85;13.63;;;;;;;12.49;77.76;100431.31;5033366;28;20042;-68
2022/05/08 00:47:01;;;;;;;14.88;12.50;;;;;;;12.33;76.62;100422.38;5014670;28;20111;-67
2022/05/08 00:49:26;;;;;;;16.25;12.75;;;;;;;12.16;77.17;100425.81;5032048;28;20123;-67
2022/05/08 00:51:52;;;;;;;14.90;11.65;;;;;;;12.06;77.14;100421.84;5032997;28;20037;-69
2022/05/08 00:54:17;;;;;;;15.68;12.40;;;;;;;11.97;77.38;100425.78;5033153;28;20030;-67
2022/05/08 00:56:43;;;;;;;17.33;14.80;;;;;;;11.87;77.50;100429.75;5032282;28;20041;-67
2022/05/08 00:59:09;;;;;;;16.67;13.35;;;;;;;11.77;77.71;100424.84;5032697;28;20434;-66
2022/05/08 01:01:35;;;;;;;20.83;16.20;;;;;;;11.51;77.67;100419.81;5025673;28;20029;-67
2022/05/08 01:04:00;;;;;;;21.55;14.82;;;;;;;11.42;77.88;100425.50;5037386;28;20372;-67
2022/05/08 01:06:26;;;;;;;15.00;12.75;;;;;;;11.39;78.62;100414.16;5032894;28;20036;-68
2022/05/08 01:08:52;;;;;;;20.63;15.50;;;;;;;11.31;77.99;100418.88;5033140;28;20087;-67
2022/05/08 01:11:18;;;;;;;21.20;14.80;;;;;;;11.24;79.04;100420.06;5032702;28;20041;-66
2022/05/08 01:13:45;;;;;;;19.08;16.25;;;;;;;11.22;79.04;100421.06;5032866;28;20402;-65
2022/05/08 01:16:16;;;;;;;22.75;15.70;;;;;;;11.21;78.79;100422.84;5031387;28;20033;-66
2022/05/08 01:18:44;;;;;;;19.50;13.75;;;;;;;11.18;79.08;100423.81;5032574;28;20557;-67
2022/05/08 01:21:12;;;;;;;22.20;15.95;;;;;;;11.25;78.62;100424.44;5033299;28;20061;-67
2022/05/08 01:23:38;;;;;;;18.88;15.20;;;;;;;11.30;79.30;100429.53;5035908;28;20033;-67
2022/05/08 01:26:04;;;;;;;20.15;15.63;;;;;;;11.33;79.76;100429.38;5033352;28;20094;-67
2022/05/08 01:28:29;;;;;;;18.25;13.93;;;;;;;11.42;79.83;100428.13;5032368;28;20510;-67
2022/05/08 01:30:55;;;;;;;18.48;15.98;;;;;;;11.46;79.35;100424.44;5031863;28;20399;-66
2022/05/08 01:33:21;;;;;;;15.05;13.45;;;;;;;11.46;79.15;100427.94;5031952;28;20120;-67
2022/05/08 01:35:47;;;;;;;18.15;14.18;;;;;;;11.53;78.73;100423.25;5033038;28;20042;-67
2022/05/08 01:38:14;;;;;;;16.02;13.88;;;;;;;11.64;79.14;100428.94;5032483;28;20030;-67
2022/05/08 01:40:41;;;;;;;15.55;13.70;;;;;;;11.69;78.38;100426.97;5032303;28;20042;-66
2022/05/08 01:43:06;;;;;;;20.92;15.68;;;;;;;11.73;78.37;100427.69;5035214;28;20025;-67
2022/05/08 01:45:33;;;;;;;17.00;14.20;;;;;;;11.77;78.60;100421.34;5033737;28;20030;-68
2022/05/08 01:50:43;;;;;;;21.67;14.60;;;;;;;11.85;78.75;100434.22;5033362;28;20044;-67
2022/05/08 01:53:09;;;;;;;19.98;13.68;;;;;;;11.85;78.55;100442.13;5034973;28;20037;-67
2022/05/08 01:55:35;;;;;;;21.88;15.07;;;;;;;11.87;79.40;100437.69;5032653;28;20041;-66
2022/05/08 01:58:01;;;;;;;18.98;16.25;;;;;;;11.97;79.02;100431.91;5031289;28;23031;-66
2022/05/08 02:00:28;;;;;;;16.75;13.85;;;;;;;12.01;79.37;100436.16;5031805;28;20033;-68
2022/05/08 02:02:57;;;;;;;19.92;15.48;;;;;;;12.05;78.86;100431.56;5030224;28;20045;-68
2022/05/08 02:05:23;;;;;;;17.40;14.35;;;;;;;12.02;78.52;100432.56;5031651;28;20103;-67
2022/05/08 02:07:49;;;;;;;15.60;12.60;;;;;;;12.01;78.63;100425.56;5031913;28;20057;-67
2022/05/08 02:10:16;;;;;;;18.45;14.98;;;;;;;12.07;79.25;100429.72;5032350;28;20030;-66
2022/05/08 02:12:42;;;;;;;17.83;13.98;;;;;;;12.12;79.50;100427.72;5030435;28;20094;-66
2022/05/08 02:15:10;;;;;;;18.67;13.85;;;;;;;12.16;79.25;100428.47;5030518;28;20034;-66
2022/05/08 02:17:36;;;;;;;18.52;15.63;;;;;;;12.24;79.97;100435.09;5029046;28;20116;-66
2022/05/08 02:20:03;;;;;;;19.63;13.50;;;;;;;12.36;79.63;100435.47;5029856;28;20121;-67
2022/05/08 02:22:29;;;;;;;22.70;19.75;;;;;;;12.50;81.23;100435.66;5029911;28;20033;-67
2022/05/08 02:24:54;;;;;;;17.27;15.45;;;;;;;12.61;80.63;100429.88;5030046;28;20037;-67
2022/05/08 02:27:20;;;;;;;24.05;19.73;;;;;;;12.73;81.25;100433.75;5029479;28;20033;-67
2022/05/08 02:29:49;;;;;;;29.88;22.58;;;;;;;12.83;81.93;100432.38;5029508;28;20457;-67
2022/05/08 02:32:15;;;;;;;19.38;16.65;;;;;;;12.92;81.75;100429.28;5029286;28;20045;-67
2022/05/08 02:34:41;;;;;;;24.33;21.13;;;;;;;13.00;81.11;100432.41;5029982;28;20045;-65
2022/05/08 02:37:06;;;;;;;28.67;23.02;;;;;;;13.01;81.89;100428.81;5028831;28;20032;-66
2022/05/08 02:39:32;;;;;;;26.02;22.00;;;;;;;12.98;82.58;100428.13;5028928;28;20125;-66
2022/05/08 02:41:57;;;;;;;27.67;22.67;;;;;;;12.98;82.65;100434.25;5032007;28;20065;-67
2022/05/08 02:44:22;;;;;;;29.70;23.58;;;;;;;12.99;82.21;100435.97;5033583;28;20033;-67
2022/05/08 02:46:48;;;;;;;29.67;21.95;;;;;;;13.04;82.55;100430.44;5032519;28;20040;-67
2022/05/08 02:49:13;;;;;;;28.80;23.33;;;;;;;13.07;82.83;100432.97;5035821;28;20083;-67
2022/05/08 02:51:39;;;;;;;30.83;26.25;;;;;;;13.12;82.66;100430.94;5033868;28;20413;-66
2022/05/08 02:54:04;;;;;;;36.88;29.80;;;;;;;13.09;82.58;100431.97;5033274;28;20052;-67
2022/05/08 02:59:13;;;;;;;37.20;29.48;;;;;;;13.11;82.99;100434.50;5032807;28;20121;-68
2022/05/08 03:01:38;;;;;;;43.25;35.00;;;;;;;13.04;82.61;100438.38;5033487;28;20104;-68
2022/05/08 03:04:04;;;;;;;45.08;36.33;;;;;;;12.97;83.97;100439.63;5032987;28;20033;-67
2022/05/08 03:06:29;;;;;;;39.88;34.15;;;;;;;12.93;83.33;100435.44;5033769;28;20119;-68
2022/05/08 03:08:55;;;;;;;44.38;36.00;;;;;;;12.93;83.69;100438.06;5034164;28;20434;-67
2022/05/08 03:11:26;;;;;;;39.33;33.50;;;;;;;12.90;84.22;100447.03;5034559;28;20113;-67
2022/05/08 03:13:52;;;;;;;41.65;34.03;;;;;;;12.89;83.49;100440.00;5034580;28;20037;-68
2022/05/08 03:16:18;;;;;;;42.55;35.00;;;;;;;12.86;82.95;100451.59;5033494;28;20116;-67
2022/05/08 03:18:45;;;;;;;37.17;33.28;;;;;;;12.81;83.64;100447.44;5034557;28;20467;-65
2022/05/08 03:21:13;;;;;;;40.97;31.58;;;;;;;12.73;83.90;100447.81;5033253;28;20037;-68
2022/05/08 03:23:40;;;;;;;36.15;32.20;;;;;;;12.72;83.85;100456.66;5033282;28;20037;-67
2022/05/08 03:26:06;;;;;;;34.47;29.10;;;;;;;12.78;82.49;100451.09;5033754;28;20030;-66
2022/05/08 03:28:33;;;;;;;37.28;30.65;;;;;;;12.79;82.63;100455.44;5034822;28;20462;-67
2022/05/08 03:31:01;;;;;;;32.28;26.45;;;;;;;12.78;82.29;100450.25;5034629;28;20041;-66
2022/05/08 03:33:28;;;;;;;32.67;25.40;;;;;;;12.77;81.83;100456.47;5032704;28;20029;-67
2022/05/08 03:35:53;;;;;;;31.52;24.88;;;;;;;12.81;82.17;100450.09;5033229;28;20512;-69
2022/05/08 03:38:19;;;;;;;33.65;28.23;;;;;;;12.86;81.84;100454.22;5033164;28;20037;-67
2022/05/08 03:40:44;;;;;;;29.67;23.27;;;;;;;12.83;81.30;100456.19;5034436;28;20037;-67
2022/05/08 03:43:10;;;;;;;26.40;21.80;;;;;;;12.84;80.78;100453.44;5034506;28;20041;-66
2022/05/08 03:45:36;;;;;;;28.45;22.98;;;;;;;12.77;80.50;100454.66;5034405;28;20172;-67
2022/05/08 03:48:02;;;;;;;25.30;19.90;;;;;;;12.77;79.77;100454.66;5032707;28;20817;-67
2022/05/08 03:50:28;;;;;;;27.77;21.60;;;;;;;12.79;79.22;100460.75;5032484;28;20402;-68
2022/05/08 03:52:54;;;;;;;24.55;18.70;;;;;;;12.86;78.72;100453.38;5031939;28;20037;-69
2022/05/08 03:55:19;;;;;;;21.85;17.08;;;;;;;12.93;78.63;100461.88;5031799;28;20040;-68
2022/05/08 03:57:45;;;;;;;21.60;17.33;;;;;;;12.87;77.58;100458.63;5029824;28;20042;-68
2022/05/08 04:00:12;;;;;;;20.83;16.92;;;;;;;12.84;76.99;100455.25;5032343;28;20030;-68
2022/05/08 04:02:38;;;;;;;20.08;14.65;;;;;;;12.84;76.86;100460.53;5031769;28;20550;-67
2022/05/08 04:05:05;;;;;;;20.55;14.23;;;;;;;12.79;76.61;100460.75;5031343;28;20136;-67
2022/05/08 04:07:31;;;;;;;17.25;13.60;;;;;;;12.73;75.84;100468.13;5030953;28;20120;-69
2022/05/08 04:09:57;;;;;;;18.05;13.20;;;;;;;12.71;75.00;100462.91;5032102;28;20040;-67
2022/05/08 04:12:23;;;;;;;19.27;14.40;;;;;;;12.72;76.01;100467.25;5032142;28;20029;-68
2022/05/08 04:14:48;;;;;;;16.90;13.18;;;;;;;12.77;75.24;100472.34;5031971;28;20087;-69
2022/05/08 04:17:13;;;;;;;18.02;12.95;;;;;;;12.73;74.83;100465.50;5031260;28;20328;-68
2022/05/08 04:19:38;;;;;;;17.13;12.27;;;;;;;12.73;74.54;100470.78;5031655;28;20049;-69
2022/05/08 04:24:49;;;;;;;13.63;10.43;;;;;;;12.70;73.65;100465.59;5031622;28;20457;-68
2022/05/08 04:27:14;;;;;;;27.73;11.52;;;;;;;12.62;73.97;100465.97;5030548;28;20034;-69
2022/05/08 04:29:40;;;;;;;18.40;11.48;;;;;;;12.58;73.28;100467.91;5031990;28;20048;-68
2022/05/08 04:32:05;;;;;;;15.40;9.15;;;;;;;12.60;73.01;100476.66;5031612;28;20087;-68
2022/05/08 04:34:31;;;;;;;18.25;11.60;;;;;;;12.58;73.19;100467.91;5031682;28;20390;-69
2022/05/08 04:36:56;;;;;;;15.90;11.43;;;;;;;12.53;73.34;100469.03;5033861;28;20091;-68
2022/05/08 04:39:22;;;;;;;20.25;11.10;;;;;;;12.46;74.02;100476.41;5031417;28;20414;-68
2022/05/08 04:41:47;;;;;;;23.33;13.95;;;;;;;12.33;73.74;100476.13;5030181;28;20036;-67
2022/05/08 04:44:12;;;;;;;19.30;11.55;;;;;;;12.30;74.10;100486.81;5031519;28;20605;-67
2022/05/08 04:46:38;;;;;;;18.55;11.88;;;;;;;12.30;73.99;100483.31;5031523;28;20068;-68
2022/05/08 04:49:03;;;;;;;17.73;11.30;;;;;;;12.36;73.94;100481.28;5031265;28;20124;-68
2022/05/08 04:51:29;;;;;;;20.85;14.00;;;;;;;12.30;73.89;100492.09;5031225;28;20033;-68
2022/05/08 04:53:55;;;;;;;24.52;13.70;;;;;;;12.29;74.15;100494.84;5031079;28;20041;-68
2022/05/08 04:56:21;;;;;;;30.70;14.50;;;;;;;12.29;74.45;100492.19;5033292;28;20491;-69
2022/05/08 04:58:46;;;;;;;23.50;15.77;;;;;;;12.24;74.31;100495.03;5030943;28;20037;-68
2022/05/08 05:01:12;;;;;;;22.50;14.80;;;;;;;12.27;74.78;100489.59;5031071;28;20049;-68
2022/05/08 05:03:37;;;;;;;24.17;14.68;;;;;;;12.29;74.49;100498.34;5030273;28;20048;-69
2022/05/08 05:06:03;;;;;;;24.85;14.93;;;;;;;12.29;74.85;100500.13;5030560;28;20037;-68
2022/05/08 05:08:28;;;;;;;21.90;13.73;;;;;;;12.26;74.07;100503.78;5030890;28;20725;-68
2022/05/08 05:10:54;;;;;;;22.05;14.63;;;;;;;12.24;74.55;100509.13;5030477;28;20402;-67
2022/05/08 05:13:19;;;;;;;30.77;15.25;;;;;;;12.22;74.43;100502.19;5030455;28;20044;-69
2022/05/08 05:15:44;;;;;;;19.98;15.57;;;;;;;12.22;74.32;100510.97;5030640;28;20069;-69
2022/05/08 05:18:10;;;;;;;22.00;14.93;;;;;;;12.25;74.15;100502.03;5030563;28;20108;-68
2022/05/08 05:20:35;;;;;;;20.23;13.43;;;;;;;12.29;74.56;100511.56;5031156;28;20038;-68
2022/05/08 05:23:01;;;;;;;22.40;14.15;;;;;;;12.26;74.14;100511.69;5029989;28;20139;-68
2022/05/08 05:25:27;;;;;;;19.70;13.30;;;;;;;12.25;74.00;100509.97;5030875;28;20033;-69
2022/05/08 05:27:54;;;;;;;21.60;14.05;;;;;;;12.23;73.80;100517.09;5030995;28;20065;-69
2022/05/08 05:30:19;;;;;;;19.30;13.20;;;;;;;12.16;73.97;100515.69;5034097;28;20513;-69
2022/05/08 05:32:45;;;;;;;23.02;16.70;;;;;;;12.09;73.82;100519.53;5034306;28;20053;-68
2022/05/08 05:35:10;;;;;;;18.98;13.73;;;;;;;12.11;73.86;100521.16;5034607;28;20487;-68
2022/05/08 05:37:36;;;;;;;19.27;13.27;;;;;;;12.03;73.70;100517.97;5030866;28;20179;-67
2022/05/08 05:40:01;;;;;;;24.50;13.65;;;;;;;12.03;73.98;100521.50;5031095;28;20043;-68
2022/05/08 05:42:27;;;;;;;23.42;14.88;;;;;;;12.09;73.82;100522.16;5030445;28;20029;-67
2022/05/08 05:44:52;;;;;;;18.83;13.23;;;;;;;12.08;73.52;100526.56;5030116;28;20049;-68
2022/05/08 05:50:01;;;;;;;15.73;13.07;;;;;;;12.07;73.49;100527.50;5030415;28;20052;-68
2022/05/08 05:52:28;;;;;;;19.70;13.60;;;;;;;12.10;73.30;100527.38;5022291;28;20029;-69
2022/05/08 05:54:53;;;;;;;22.25;15.68;;;;;;;12.13;73.14;100531.66;5043244;28;20054;-69
2022/05/08 05:57:18;;;;;;;27.42;15.75;;;;;;;12.13;72.65;100529.00;5027956;28;20060;-68
2022/05/08 05:59:44;;;;;;;21.30;14.93;;;;;;;12.10;72.64;100534.44;5030670;28;20042;-69
2022/05/08 06:02:10;;;;;;;19.63;14.73;;;;;;;12.11;72.83;100534.38;5029321;28;20033;-68
2022/05/08 06:04:36;;;;;;;21.60;14.88;;;;;;;12.10;72.93;100540.56;5030000;28;20092;-68
2022/05/08 06:07:02;;;;;;;23.70;15.85;;;;;;;12.07;72.83;100534.56;5029615;28;20502;-67
2022/05/08 06:09:27;;;;;;;33.25;18.85;;;;;;;11.96;73.70;100538.56;5030043;28;20120;-68
2022/05/08 06:11:53;;;;;;;23.88;16.05;;;;;;;12.01;73.29;100538.31;5029881;28;20402;-68
2022/05/08 06:14:19;;;;;;;24.55;16.80;;;;;;;12.02;72.82;100546.19;5029825;28;20045;-68
2022/05/08 06:16:44;;;;;;;28.15;17.10;;;;;;;12.02;73.41;100548.00;5028907;28;20045;-69
2022/05/08 06:19:10;;;;;;;26.65;16.77;;;;;;;12.04;73.35;100551.44;5029520;28;20512;-69
2022/05/08 06:21:35;;;;;;;28.58;17.77;;;;;;;12.07;73.52;100550.44;5029236;28;20042;-68
2022/05/08 06:24:00;;;;;;;26.85;16.50;;;;;;;12.13;73.49;100547.50;5029625;28;20045;-68
2022/05/08 06:26:26;;;;;;;21.25;15.32;;;;;;;12.24;73.32;100547.91;5028692;28;20083;-68
2022/05/08 06:28:52;;;;;;;21.38;15.50;;;;;;;12.33;72.93;100542.22;5015555;28;20030;-68
2022/05/08 06:31:17;;;;;;;29.20;17.70;;;;;;;12.30;72.66;100549.41;5029561;28;20052;-68
2022/05/08 06:33:43;;;;;;;27.70;16.80;;;;;;;12.28;73.73;100549.50;5029505;28;20132;-67
2022/05/08 06:36:10;;;;;;;25.10;15.00;;;;;;;12.35;73.22;100550.06;5032807;28;20041;-69
2022/05/08 06:38:35;;;;;;;27.98;17.45;;;;;;;12.43;72.88;100551.47;5029203;28;20033;-67
2022/05/08 06:41:01;;;;;;;32.30;16.73;;;;;;;12.53;72.56;100559.84;5027406;28;20564;-69
2022/05/08 06:43:26;;;;;;;32.42;17.45;;;;;;;12.48;72.53;100568.91;5029013;28;20460;-68
2022/05/08 06:45:52;;;;;;;28.60;16.17;;;;;;;12.43;72.77;100567.34;5028505;28;20033;-66
2022/05/08 06:48:17;;;;;;;29.45;19.10;;;;;;;12.44;72.89;100561.09;5029938;28;20033;-68
2022/05/08 06:50:43;;;;;;;27.50;17.92;;;;;;;12.49;72.74;100558.25;5031025;28;20495;-67
2022/05/08 06:53:08;;;;;;;36.83;20.25;;;;;;;12.52;72.41;100571.34;5031638;28;20034;-68
2022/05/08 06:55:35;;;;;;;28.90;17.48;;;;;;;12.51;72.96;100572.28;5030901;28;20045;-68
2022/05/08 06:58:00;;;;;;;30.92;21.10;;;;;;;12.51;73.02;100572.28;5030490;28;20033;-68
2022/05/08 07:03:09;;;;;;;30.25;18.73;;;;;;;12.55;72.27;100581.81;5031027;28;20036;-68
2022/05/08 07:05:40;;;;;;;28.08;17.92;;;;;;;12.52;72.14;100578.41;5031085;28;20034;-68
2022/05/08 07:08:05;;;;;;;28.48;19.15;;;;;;;12.55;71.51;100575.63;5029901;28;20037;-68
2022/05/08 07:10:31;;;;;;;29.75;18.67;;;;;;;12.52;71.75;100581.91;5030511;28;20044;-69
2022/05/08 07:12:56;;;;;;;27.98;19.63;;;;;;;12.64;71.63;100588.44;5031352;28;20044;-66
2022/05/08 07:15:22;;;;;;;28.40;18.27;;;;;;;12.67;70.57;100586.53;5012727;28;20033;-66
2022/05/08 07:17:47;;;;;;;30.65;19.90;;;;;;;12.62;70.54;100590.31;5029424;28;20034;-66
2022/05/08 07:20:12;;;;;;;25.13;17.17;;;;;;;12.63;70.81;100587.59;5030721;28;20099;-67
2022/05/08 07:22:39;;;;;;;27.13;17.75;;;;;;;12.75;69.89;100598.53;5012818;28;20033;-67
2022/05/08 07:25:05;;;;;;;24.90;17.85;;;;;;;12.78;70.25;100594.00;5030661;28;20029;-67
2022/05/08 07:27:32;;;;;;;27.33;18.08;;;;;;;12.88;68.83;100592.63;5031604;28;20037;-67
2022/05/08 07:29:57;;;;;;;22.25;17.05;;;;;;;12.93;69.13;100589.78;5034112;28;20029;-68
2022/05/08 07:32:24;;;;;;;26.02;19.23;;;;;;;13.00;68.63;100590.38;5033666;28;20336;-66
2022/05/08 07:37:34;;;;;;;28.52;20.42;;;;;;;12.93;68.70;100594.22;5033613;28;20048;-67
2022/05/08 07:39:59;;;;;;;30.30;22.20;;;;;;;12.99;68.35;100602.72;5032738;28;20038;-67
2022/05/08 07:42:25;;;;;;;38.13;22.60;;;;;;;13.04;68.27;100605.16;5034404;28;20043;-65
2022/05/08 07:44:50;;;;;;;46.22;23.10;;;;;;;13.04;68.14;100608.69;5033321;28;20033;-68
2022/05/08 07:47:16;;;;;;;30.92;20.45;;;;;;;12.88;68.03;100605.00;5018900;28;20041;-68
2022/05/08 07:49:41;;;;;;;30.40;20.02;;;;;;;12.77;68.29;100613.41;5035104;28;20587;-68
2022/05/08 07:52:06;;;;;;;27.58;19.20;;;;;;;12.73;67.96;100614.50;5033901;28;20041;-67
2022/05/08 07:54:31;;;;;;;31.02;20.65;;;;;;;12.79;68.37;100624.78;5034079;28;20116;-67
2022/05/08 07:56:57;;;;;;;24.75;18.13;;;;;;;12.77;67.60;100623.16;5033593;28;20068;-67
2022/05/08 07:59:22;;;;;;;29.25;17.60;;;;;;;12.91;67.17;100622.53;5033919;28;20025;-67
2022/05/08 08:01:47;;;;;;;27.70;16.38;;;;;;;12.92;66.72;100627.78;5034750;28;20041;-67
2022/05/08 08:04:13;;;;;;;27.60;18.35;;;;;;;12.98;65.63;100629.28;5035669;28;20045;-67
2022/05/08 08:06:38;;;;;;;23.73;16.70;;;;;;;12.98;65.80;100631.91;5033568;28;20038;-67
2022/05/08 08:09:04;;;;;;;23.75;16.67;;;;;;;13.10;65.91;100634.84;5035812;28;20044;-66
2022/05/08 08:11:31;;;;;;;29.02;16.73;;;;;;;13.17;64.38;100626.63;5034693;28;20029;-66
2022/05/08 08:13:56;;;;;;;21.75;14.27;;;;;;;13.24;63.82;100636.88;5031564;28;20037;-67
2022/05/08 08:16:22;;;;;;;23.90;16.40;;;;;;;13.34;63.86;100636.47;5028654;28;20030;-69
2022/05/08 08:18:48;;;;;;;24.42;16.35;;;;;;;13.17;63.91;100642.50;5029502;28;20099;-67
2022/05/08 08:21:16;;;;;;;24.23;15.07;;;;;;;13.16;63.72;100640.78;5029141;28;20044;-67
2022/05/08 08:23:42;;;;;;;26.10;15.13;;;;;;;13.21;63.34;100644.09;5032118;28;20041;-67
2022/05/08 08:26:09;;;;;;;27.83;15.57;;;;;;;13.18;63.04;100642.44;5030816;28;20041;-67
2022/05/08 08:28:34;;;;;;;23.15;14.13;;;;;;;13.27;62.87;100642.06;5031591;28;20483;-68
2022/05/08 08:30:59;;;;;;;22.50;14.57;;;;;;;13.36;63.59;100639.91;5031479;28;20029;-66
2022/05/08 08:33:26;;;;;;;26.75;13.85;;;;;;;13.41;62.57;100638.75;5031879;28;20057;-68
2022/05/08 08:35:52;;;;;;;23.85;14.07;;;;;;;13.32;62.51;100645.34;5030944;28;20043;-69
2022/05/08 08:38:17;;;;;;;27.10;15.30;;;;;;;13.48;62.49;100650.75;5015351;28;20034;-69
2022/05/08 08:40:48;;;;;;;25.05;15.13;;;;;;;13.77;62.42;100647.66;5030150;28;20444;-69
2022/05/08 08:43:17;;;;;;;22.42;14.27;;;;;;;13.95;60.99;100639.69;5031313;28;20082;-68
2022/05/08 08:48:29;;;;;;;21.92;13.48;;;;;;;14.41;60.32;100635.63;5050858;28;20039;-68
2022/05/08 08:50:56;;;;;;;20.92;14.20;;;;;;;14.50;59.89;100641.31;5052138;28;20161;-68
2022/05/08 08:53:23;;;;;;;24.65;14.77;;;;;;;14.42;60.36;100642.63;5051177;28;20032;-68
2022/05/08 08:55:49;;;;;;;40.35;15.82;;;;;;;14.30;60.22;100649.41;5053143;28;20072;-65
2022/05/08 08:58:19;;;;;;;26.80;12.52;;;;;;;14.37;60.24;100649.06;5057401;28;20033;-67
2022/05/08 09:00:49;;;;;;;21.75;14.82;;;;;;;14.20;60.10;100649.06;5055281;28;20422;-67
2022/05/08 09:03:25;;;;;;;23.58;14.45;;;;;;;14.20;60.14;100657.00;5055111;28;20114;-67
2022/05/08 09:06:02;;;;;;;26.02;15.95;;;;;;;14.16;60.58;100660.75;5036361;28;20037;-67
2022/05/08 09:08:32;;;;;;;23.73;14.95;;;;;;;14.27;60.45;100661.03;5052872;28;20554;-67
2022/05/08 09:10:59;;;;;;;21.95;13.95;;;;;;;14.26;59.77;100664.66;5052344;28;20448;-67
2022/05/08 09:13:30;;;;;;;17.95;12.60;;;;;;;14.35;60.28;100666.84;5052523;28;20036;-67
2022/05/08 09:16:02;;;;;;;22.42;13.98;;;;;;;14.32;59.73;100653.75;5051790;28;20037;-67
2022/05/08 09:18:29;;;;;;;24.30;14.85;;;;;;;14.23;60.65;100667.47;5052457;28;20037;-67
2022/05/08 09:20:57;;;;;;;23.35;14.60;;;;;;;14.24;60.07;100668.31;5052436;28;20190;-68
2022/05/08 09:23:23;;;;;;;19.73;14.02;;;;;;;14.33;60.38;100657.25;5052394;28;20044;-67
2022/05/08 09:25:56;;;;;;;23.60;13.65;;;;;;;14.74;58.56;100654.25;5052074;28;20406;-68
2022/05/08 09:28:31;;;;;;;21.95;14.15;;;;;;;15.04;57.62;100659.75;5052179;28;20037;-67
2022/05/08 09:31:02;;;;;;;21.70;13.13;;;;;;;15.25;57.40;100655.06;5052623;28;20029;-68
2022/05/08 09:33:44;;;;;;;21.80;10.95;;;;;;;15.30;56.87;100647.69;5051874;28;20079;-68
2022/05/08 09:36:11;;;;;;;20.88;12.13;;;;;;;15.43;56.12;100642.56;5051821;28;20040;-67
2022/05/08 09:38:45;;;;;;;24.17;10.35;;;;;;;15.19;55.72;100656.25;5040998;28;20030;-68
2022/05/08 09:41:11;;;;;;;15.90;9.43;;;;;;;15.30;54.70;100655.66;5031504;28;20048;-68
2022/05/08 09:43:37;;;;;;;19.10;11.88;;;;;;;15.41;53.56;100655.09;5032452;28;20040;-67
2022/05/08 09:46:04;;;;;;;18.55;10.57;;;;;;;15.34;54.35;100657.22;5031738;28;20041;-70
2022/05/08 09:48:33;;;;;;;23.70;11.23;;;;;;;15.51;53.88;100664.25;5030766;28;20033;-68
2022/05/08 09:51:05;;;;;;;15.93;8.73;;;;;;;15.66;53.09;100660.75;5030443;28;20033;-68
2022/05/08 09:53:31;;;;;;;20.92;9.35;;;;;;;15.89;52.15;100653.28;5030844;28;20029;-65
2022/05/08 09:55:58;;;;;;;20.48;9.43;;;;;;;16.03;51.67;100653.34;5030581;28;20045;-67
2022/05/08 09:58:24;;;;;;;16.70;8.88;;;;;;;16.04;51.61;100664.84;5030436;28;20104;-67
2022/05/08 10:00:51;;;;;;;16.75;8.95;;;;;;;16.03;51.23;100660.47;5030876;28;20176;-66
2022/05/08 10:03:17;;;;;;;16.17;9.75;;;;;;;16.17;50.64;100665.84;5030714;28;20033;-68
2022/05/08 10:05:43;;;;;;;18.05;9.38;;;;;;;16.12;50.66;100664.38;5031366;28;20037;-68
2022/05/08 10:08:10;;;;;;;18.55;8.88;;;;;;;16.18;49.94;100661.38;5030483;28;20029;-68
2022/05/08 10:13:56;;;;;;;15.57;9.25;;;;;;;16.37;49.14;100662.03;5030936;28;20087;-68
2022/05/08 10:16:54;;;;;;;15.27;8.73;;;;;;;16.36;49.12;100656.78;5029689;28;20120;-67
2022/05/08 10:19:21;;;;;;;18.00;10.70;;;;;;;17.30;47.33;100659.91;5030199;28;20411;-67
2022/05/08 10:21:53;;;;;;;14.80;8.63;;;;;;;18.66;44.80;100653.59;5030171;28;20084;-66
2022/05/08 10:24:40;;;;;;;15.50;8.60;;;;;;;19.46;43.32;100655.97;5030233;28;20494;-69
2022/05/08 10:27:22;;;;;;;21.95;10.27;;;;;;;20.35;40.43;100651.22;5030021;28;20178;-67
2022/05/08 10:29:50;;;;;;;16.20;8.60;;;;;;;20.64;39.87;100649.00;5030227;28;20482;-68
2022/05/08 10:32:33;;;;;;;19.13;7.97;;;;;;;20.00;40.46;100654.75;5029757;28;20529;-67
2022/05/08 10:35:11;;;;;;;15.60;7.90;;;;;;;19.79;41.35;100646.50;5029786;28;20352;-67
2022/05/08 10:37:41;;;;;;;14.07;7.75;;;;;;;19.67;40.46;100647.38;5029442;28;20030;-68
2022/05/08 10:40:25;;;;;;;14.57;6.55;;;;;;;19.39;40.73;100644.00;5030073;28;20576;-68
2022/05/08 10:42:55;;;;;;;17.40;6.90;;;;;;;19.85;40.25;100651.38;5029933;28;20041;-68
2022/05/08 10:45:37;;;;;;;13.38;5.82;;;;;;;19.95;40.07;100649.72;5029926;28;20030;-68
2022/05/08 10:48:10;;;;;;;17.13;6.85;;;;;;;20.02;39.38;100652.81;5029743;28;20103;-67
2022/05/08 10:50:47;;;;;;;13.63;6.78;;;;;;;19.26;41.04;100644.06;5030331;28;20051;-68
2022/05/08 10:53:33;;;;;;;14.75;6.10;;;;;;;19.63;39.80;100640.53;5050633;28;20112;-68
2022/05/08 10:56:01;;;;;;;10.77;5.13;;;;;;;19.49;39.40;100645.09;5029440;28;20124;-68
2022/05/08 10:58:26;;;;;;;11.15;6.63;;;;;;;19.15;40.96;100641.31;5030007;28;20036;-68
2022/05/08 11:00:56;;;;;;;12.02;7.90;;;;;;;18.83;41.95;100641.78;5029419;28;20041;-68
2022/05/08 11:03:22;;;;;;;16.95;8.13;;;;;;;18.38;42.93;100629.72;5034782;28;20038;-68
2022/05/08 11:05:48;;;;;;;13.05;5.70;;;;;;;18.45;42.70;100633.69;5033003;28;20037;-68
2022/05/08 11:08:21;;;;;;;16.30;7.15;;;;;;;18.10;41.52;100622.75;5033895;28;20099;-68
2022/05/08 11:10:56;;;;;;;11.35;5.45;;;;;;;18.32;41.37;100628.34;5034390;28;20116;-67
2022/05/08 11:13:21;;;;;;;14.80;5.10;;;;;;;18.34;41.24;100629.09;5034273;28;20049;-68
2022/05/08 11:15:49;;;;;;;24.00;7.38;;;;;;;18.55;40.44;100631.25;5034520;28;20509;-68
2022/05/08 11:18:24;;;;;;;21.17;5.75;;;;;;;18.59;40.49;100633.59;5035003;28;20033;-67
2022/05/08 11:20:55;;;;;;;;;;;;;;;18.61;41.03;100626.34;5036389;28;20521;-69
2022/05/08 11:23:25;;;;;;;12.98;5.97;;;;;;;18.62;40.71;100630.72;5035033;28;19985;-69
2022/05/08 11:25:55;;;;;;;14.23;5.93;;;;;;;18.75;40.16;100621.84;5034226;28;20502;-67
2022/05/08 11:28:23;;;;;;;12.00;5.45;;;;;;;18.57;41.07;100624.00;5034081;28;20038;-66
2022/05/08 11:30:50;;;;;;;10.18;4.97;;;;;;;18.47;41.30;100620.25;5033482;28;20108;-67
2022/05/08 11:38:39;;;;;;;14.75;6.78;;;;;;;18.78;41.30;100611.84;5033348;28;20064;-68